Time;durP1;ratioP1;P1;durP2;ratioP2;P2;SDS_P1;SDS_P2;PMS_P1;PMS_P2;Temp;Humidity;BMP_temperature;BMP_pressure;BME280_temperature;BME280_humidity;BME280_pressure;Samples;Min_cycle;Max_cycle;Signal;HPM_P1;HPM_P2
2022/04/21 00:02:23;;;;;;;9.30;3.72;;;;;;;10.52;55.41;99252.63;4955939;28;20466;-69
2022/04/21 00:04:48;;;;;;;7.00;3.70;;;;;;;10.42;55.94;99254.09;4956094;28;20106;-68
2022/04/21 00:07:14;;;;;;;4.63;3.17;;;;;;;10.31;56.32;99247.66;4956392;28;20089;-67
2022/04/21 00:09:39;;;;;;;7.07;3.95;;;;;;;10.22;56.53;99245.50;4957645;28;20036;-68
2022/04/21 00:12:04;;;;;;;9.25;4.13;;;;;;;10.11;57.42;99247.88;4956269;28;20117;-67
2022/04/21 00:14:33;;;;;;;7.55;3.58;;;;;;;10.01;57.71;99247.53;4957396;28;20042;-67
2022/04/21 00:16:58;;;;;;;6.30;3.92;;;;;;;9.95;58.37;99234.72;4957382;28;20038;-67
2022/04/21 00:19:24;;;;;;;8.80;3.25;;;;;;;9.90;58.11;99244.66;4957105;28;20062;-68
2022/04/21 00:24:33;;;;;;;6.65;4.47;;;;;;;9.72;58.78;99241.25;4957027;28;20050;-67
2022/04/21 00:26:58;;;;;;;7.43;3.90;;;;;;;9.64;58.77;99241.66;4956710;28;20043;-67
2022/04/21 00:29:23;;;;;;;7.25;3.88;;;;;;;9.62;59.37;99240.03;4954964;28;20039;-68
2022/04/21 00:31:49;;;;;;;8.82;3.97;;;;;;;9.65;58.47;99237.25;4954971;28;20043;-67
2022/04/21 00:34:14;;;;;;;6.72;2.97;;;;;;;9.74;57.84;99230.63;4955006;28;20487;-69
2022/04/21 00:36:40;;;;;;;4.18;2.70;;;;;;;9.80;57.75;99223.25;4953489;28;20407;-69
2022/04/21 00:39:05;;;;;;;4.88;2.75;;;;;;;9.83;56.96;99228.34;4951783;28;20456;-68
2022/04/21 00:41:30;;;;;;;4.47;3.13;;;;;;;9.87;57.00;99218.50;4953047;28;20559;-66
2022/04/21 00:43:56;;;;;;;4.95;3.28;;;;;;;9.90;56.91;99223.59;4955954;28;20043;-67
2022/04/21 00:46:21;;;;;;;4.95;3.15;;;;;;;9.92;56.57;99220.84;4955370;28;20076;-67
2022/04/21 00:48:49;;;;;;;5.32;3.30;;;;;;;9.91;56.26;99212.13;4955341;28;20113;-70
2022/04/21 00:51:14;;;;;;;6.20;3.53;;;;;;;9.91;56.79;99206.84;4954835;28;20070;-68
2022/04/21 00:53:40;;;;;;;6.13;3.50;;;;;;;9.94;56.19;99214.56;4951586;28;20035;-67
2022/04/21 00:56:06;;;;;;;6.35;2.92;;;;;;;9.93;56.70;99222.56;4952950;28;20116;-69
2022/04/21 00:58:33;;;;;;;4.85;2.97;;;;;;;9.94;56.84;99222.47;4952854;28;20043;-69
2022/04/21 01:00:59;;;;;;;5.55;2.92;;;;;;;9.95;57.00;99212.81;4940647;28;20173;-69
2022/04/21 01:03:25;;;;;;;4.55;3.08;;;;;;;9.94;56.76;99219.00;4962015;28;20142;-69
2022/04/21 01:05:51;;;;;;;8.63;3.67;;;;;;;9.90;56.58;99215.69;4952845;28;20479;-69
2022/04/21 01:08:16;;;;;;;4.20;3.15;;;;;;;9.90;56.66;99215.69;4953060;28;20050;-69
2022/04/21 01:10:42;;;;;;;6.55;3.83;;;;;;;9.92;56.27;99215.59;4952487;28;20116;-68
2022/04/21 01:13:09;;;;;;;5.35;3.13;;;;;;;9.89;56.50;99222.75;4952474;28;20066;-69
2022/04/21 01:15:36;;;;;;;6.13;4.60;;;;;;;9.86;56.65;99212.38;4952661;28;20509;-70
2022/04/21 01:18:01;;;;;;;4.82;3.65;;;;;;;9.86;56.88;99216.78;4952479;28;20051;-69
2022/04/21 01:20:27;;;;;;;6.70;3.35;;;;;;;9.84;56.85;99218.66;4952560;28;20043;-69
2022/04/21 01:22:53;;;;;;;6.07;3.72;;;;;;;9.83;56.81;99214.34;4952274;28;20399;-68
2022/04/21 01:25:20;;;;;;;6.88;3.80;;;;;;;9.81;57.05;99216.19;4955050;28;20031;-68
2022/04/21 01:27:48;;;;;;;5.72;3.55;;;;;;;9.79;56.44;99212.78;4954760;28;20283;-67
2022/04/21 01:30:14;;;;;;;9.27;4.10;;;;;;;9.77;57.10;99215.53;4954299;28;20035;-67
2022/04/21 01:32:44;;;;;;;8.20;4.47;;;;;;;9.74;56.89;99213.03;4954317;28;20035;-67
2022/04/21 01:35:11;;;;;;;7.97;3.10;;;;;;;9.71;56.68;99212.38;4954885;28;20035;-68
2022/04/21 01:43:10;;;;;;;7.57;3.53;;;;;;;9.64;56.97;99211.84;4951611;28;20118;-68
2022/04/21 01:45:36;;;;;;;6.15;3.55;;;;;;;9.63;56.86;99210.16;4953235;28;20470;-68
2022/04/21 01:48:04;;;;;;;5.65;3.22;;;;;;;9.61;56.93;99212.88;4954451;28;20500;-68
2022/04/21 01:50:30;;;;;;;8.23;3.50;;;;;;;9.61;56.63;99210.25;4954293;28;20097;-68
2022/04/21 01:52:58;;;;;;;5.63;3.60;;;;;;;9.55;58.10;99217.63;4952456;28;20035;-69
2022/04/21 01:55:23;;;;;;;5.22;3.80;;;;;;;9.49;58.97;99223.22;4950583;28;20491;-68
2022/04/21 01:57:49;;;;;;;4.82;3.10;;;;;;;9.42;58.23;99222.69;4952176;28;20038;-68
2022/04/21 02:00:15;;;;;;;6.10;3.50;;;;;;;9.40;58.12;99211.41;4950010;28;20042;-69
2022/04/21 02:02:40;;;;;;;7.95;3.50;;;;;;;9.34;58.50;99211.75;4951601;28;20036;-68
2022/04/21 02:05:06;;;;;;;5.38;3.22;;;;;;;9.33;58.90;99213.53;4952087;28;20035;-68
2022/04/21 02:07:31;;;;;;;3.78;2.85;;;;;;;9.32;58.93;99209.19;4951350;28;20400;-68
2022/04/21 02:09:57;;;;;;;6.13;3.53;;;;;;;9.29;58.95;99219.03;4951503;28;20122;-68
2022/04/21 02:12:24;;;;;;;7.55;3.70;;;;;;;9.24;59.22;99214.00;4943361;28;20050;-68
2022/04/21 02:14:51;;;;;;;8.93;3.88;;;;;;;9.16;59.52;99214.41;4951743;28;20047;-67
2022/04/21 02:17:17;;;;;;;5.68;3.42;;;;;;;9.09;59.86;99209.56;4952065;28;20074;-68
2022/04/21 02:19:42;;;;;;;5.72;3.58;;;;;;;8.99;60.37;99212.66;4952302;28;20062;-68
2022/04/21 02:22:07;;;;;;;10.05;4.25;;;;;;;8.89;60.68;99211.44;4951366;28;20110;-68
2022/04/21 02:24:33;;;;;;;6.68;3.63;;;;;;;8.81;60.84;99211.84;4951613;28;20035;-68
2022/04/21 02:26:58;;;;;;;7.93;4.55;;;;;;;8.67;61.52;99206.44;4951817;28;20030;-69
2022/04/21 02:29:24;;;;;;;7.45;4.40;;;;;;;8.55;61.39;99205.28;4951789;28;20050;-69
2022/04/21 02:31:49;;;;;;;5.07;3.70;;;;;;;8.41;62.80;99205.09;4949398;28;20062;-69
2022/04/21 02:34:15;;;;;;;11.15;4.53;;;;;;;8.32;62.81;99209.03;4951549;28;20491;-69
2022/04/21 02:36:40;;;;;;;5.75;3.58;;;;;;;8.26;63.35;99204.06;4951990;28;20057;-69
2022/04/21 02:39:05;;;;;;;6.30;4.45;;;;;;;8.17;64.27;99192.25;4951609;28;20059;-69
2022/04/21 02:41:31;;;;;;;8.48;4.13;;;;;;;8.09;64.12;99190.91;4950943;28;20461;-67
2022/04/21 02:43:56;;;;;;;5.47;3.97;;;;;;;8.01;64.24;99198.31;4951324;28;20038;-69
2022/04/21 02:46:25;;;;;;;7.32;4.65;;;;;;;7.91;65.00;99196.13;4953725;28;20228;-69
2022/04/21 02:48:50;;;;;;;7.15;4.07;;;;;;;7.80;65.34;99194.91;4955584;28;20069;-69
2022/04/21 02:51:15;;;;;;;7.57;4.85;;;;;;;7.67;65.97;99199.91;4954775;28;20500;-69
2022/04/21 02:59:09;;;;;;;5.53;3.75;;;;;;;7.53;65.35;99203.16;4951771;28;20075;-69
2022/04/21 03:01:34;;;;;;;4.43;3.08;;;;;;;7.49;65.15;99201.63;4954689;28;20031;-70
2022/04/21 03:04:01;;;;;;;7.30;3.70;;;;;;;7.42;65.59;99200.19;4955492;28;20027;-69
2022/04/21 03:06:26;;;;;;;5.03;3.60;;;;;;;7.41;65.39;99196.72;4956099;28;20039;-70
2022/04/21 03:08:51;;;;;;;8.23;3.60;;;;;;;7.39;65.59;99198.56;4956999;28;20042;-69
2022/04/21 03:11:17;;;;;;;5.43;4.10;;;;;;;7.35;65.70;99206.63;4957006;28;20035;-69
2022/04/21 03:13:42;;;;;;;4.10;3.70;;;;;;;7.31;65.75;99198.91;4960279;28;20042;-69
2022/04/21 03:16:07;;;;;;;6.10;4.20;;;;;;;7.23;66.62;99203.63;4958302;28;20118;-69
2022/04/21 03:18:33;;;;;;;7.88;3.95;;;;;;;7.18;66.37;99199.53;4962156;28;20035;-69
2022/04/21 03:26:26;;;;;;;6.07;3.42;;;;;;;7.10;66.78;99203.31;4955669;28;20046;-68
2022/04/21 03:28:52;;;;;;;7.55;4.05;;;;;;;7.11;67.04;99204.16;4954855;28;20403;-68
2022/04/21 03:31:17;;;;;;;11.70;4.03;;;;;;;7.12;67.03;99205.91;4953822;28;20093;-69
2022/04/21 03:33:42;;;;;;;9.40;3.78;;;;;;;7.08;67.21;99206.94;4955024;28;20046;-69
2022/04/21 03:36:08;;;;;;;9.07;3.97;;;;;;;7.01;67.33;99208.13;4953619;28;20043;-68
2022/04/21 03:38:37;;;;;;;7.90;3.92;;;;;;;6.97;67.80;99203.97;4954539;28;20042;-69
2022/04/21 03:41:03;;;;;;;4.60;3.20;;;;;;;6.99;67.59;99207.34;4954246;28;20035;-68
2022/04/21 03:43:28;;;;;;;6.35;3.83;;;;;;;6.97;67.82;99207.41;4955075;28;20046;-69
2022/04/21 03:45:53;;;;;;;12.60;4.70;;;;;;;6.89;67.74;99209.50;4954471;28;20037;-69
2022/04/21 03:48:19;;;;;;;5.70;3.90;;;;;;;6.84;68.19;99208.84;4954749;28;20118;-69
2022/04/21 03:50:44;;;;;;;7.65;3.42;;;;;;;6.71;68.92;99208.53;4954307;28;20035;-69
2022/04/21 03:53:10;;;;;;;8.25;4.40;;;;;;;6.64;69.08;99212.34;4954621;28;20507;-68
2022/04/21 03:55:35;;;;;;;5.63;4.35;;;;;;;6.59;69.24;99211.69;4955681;28;20036;-69
2022/04/21 03:58:00;;;;;;;8.93;4.43;;;;;;;6.52;69.41;99208.47;4954007;28;20532;-69
2022/04/21 04:00:26;;;;;;;6.40;4.38;;;;;;;6.47;69.69;99205.19;4954532;28;20043;-69
2022/04/21 04:02:51;;;;;;;7.07;3.88;;;;;;;6.39;69.87;99213.34;4953846;28;20038;-67
2022/04/21 04:05:17;;;;;;;11.65;4.22;;;;;;;6.38;69.76;99213.44;4954488;28;20129;-67
2022/04/21 04:13:09;;;;;;;8.40;4.18;;;;;;;6.33;69.72;99220.63;4955211;28;20091;-67
2022/04/21 04:15:35;;;;;;;5.30;3.83;;;;;;;6.33;69.74;99216.25;4955514;28;20038;-67
2022/04/21 04:18:00;;;;;;;5.00;3.70;;;;;;;6.33;69.48;99216.25;4955737;28;20410;-68
2022/04/21 04:20:25;;;;;;;4.93;3.60;;;;;;;6.34;69.32;99219.72;4955642;28;20122;-67
2022/04/21 04:22:51;;;;;;;6.10;4.05;;;;;;;6.23;70.16;99218.38;4955970;28;20062;-67
2022/04/21 04:25:16;;;;;;;8.52;4.18;;;;;;;6.09;70.34;99223.31;4955993;28;20027;-68
2022/04/21 04:27:42;;;;;;;5.53;3.88;;;;;;;6.01;70.89;99215.78;4956864;28;20038;-68
2022/04/21 04:30:08;;;;;;;6.45;3.78;;;;;;;6.00;71.02;99215.81;4956918;28;20035;-68
2022/04/21 04:32:35;;;;;;;7.93;4.05;;;;;;;5.95;71.45;99212.53;4956621;28;20488;-68
2022/04/21 04:35:00;;;;;;;7.22;4.85;;;;;;;5.96;70.90;99214.25;4956622;28;20473;-68
2022/04/21 04:37:26;;;;;;;7.57;4.03;;;;;;;6.05;70.88;99223.50;4957087;28;20054;-68
2022/04/21 04:39:52;;;;;;;6.80;3.67;;;;;;;6.08;70.76;99215.50;4956926;28;20050;-68
2022/04/21 04:42:17;;;;;;;4.70;3.63;;;;;;;6.09;70.34;99219.84;4954028;28;20027;-68
2022/04/21 04:44:47;;;;;;;7.32;4.63;;;;;;;6.09;70.49;99223.31;4956066;28;20042;-68
2022/04/21 04:47:13;;;;;;;11.38;3.92;;;;;;;6.06;70.49;99226.06;4955333;28;20395;-68
2022/04/21 04:49:38;;;;;;;8.30;4.85;;;;;;;6.05;70.65;99220.88;4956303;28;20138;-68
2022/04/21 04:52:05;;;;;;;5.90;4.60;;;;;;;6.06;71.14;99226.06;4955902;28;20039;-67
2022/04/21 04:54:30;;;;;;;7.18;5.25;;;;;;;6.06;70.62;99226.06;4956710;28;20094;-68
2022/04/21 04:56:57;;;;;;;6.60;5.18;;;;;;;6.12;70.88;99230.19;4956897;28;20047;-69
2022/04/21 04:59:22;;;;;;;7.88;4.32;;;;;;;6.16;70.44;99230.00;4957580;28;20499;-68
2022/04/21 05:01:48;;;;;;;10.52;4.53;;;;;;;6.17;70.49;99228.25;4975130;28;20038;-70
2022/04/21 05:04:15;;;;;;;9.20;5.13;;;;;;;6.20;70.34;99228.97;4953372;28;20031;-69
2022/04/21 05:06:42;;;;;;;7.97;5.13;;;;;;;6.27;70.55;99226.94;4953148;28;20031;-68
2022/04/21 05:09:09;;;;;;;11.73;4.53;;;;;;;6.36;70.20;99225.75;4952628;28;20039;-68
2022/04/21 05:11:35;;;;;;;7.30;4.60;;;;;;;6.47;70.27;99228.75;4952411;28;20122;-66
2022/04/21 05:14:04;;;;;;;7.30;4.38;;;;;;;6.63;69.44;99221.13;4953209;28;20039;-66
2022/04/21 05:16:29;;;;;;;9.43;4.45;;;;;;;6.79;68.87;99224.81;4953473;28;20054;-66
2022/04/21 05:18:57;;;;;;;10.48;4.03;;;;;;;6.92;68.44;99226.91;4953778;28;20101;-66
2022/04/21 05:21:23;;;;;;;8.57;5.82;;;;;;;7.03;68.14;99220.25;4951920;28;20619;-67
2022/04/21 05:23:56;;;;;;;6.28;4.32;;;;;;;7.07;67.91;99219.19;4952614;28;20765;-67
2022/04/21 05:26:21;;;;;;;12.10;5.22;;;;;;;7.17;67.79;99224.03;4952784;28;20038;-66
2022/04/21 05:28:47;;;;;;;10.70;5.15;;;;;;;7.22;67.36;99215.03;4953066;28;20027;-67
2022/04/21 05:31:13;;;;;;;7.95;5.82;;;;;;;7.32;67.34;99215.47;4951657;28;20034;-67
2022/04/21 05:33:39;;;;;;;9.23;4.75;;;;;;;7.41;66.89;99214.19;4952919;28;20526;-67
2022/04/21 05:36:05;;;;;;;5.32;4.28;;;;;;;7.47;66.75;99211.31;4952309;28;20035;-67
2022/04/21 05:38:31;;;;;;;14.30;5.00;;;;;;;7.64;66.50;99207.91;4952266;28;20035;-68
2022/04/21 05:40:58;;;;;;;13.70;5.28;;;;;;;7.73;66.39;99202.25;4952076;28;20066;-68
2022/04/21 05:43:30;;;;;;;13.63;5.03;;;;;;;7.83;66.34;99200.88;4951859;28;20043;-67
2022/04/21 05:45:55;;;;;;;9.95;5.43;;;;;;;7.98;66.18;99208.97;4954272;28;20122;-66
2022/04/21 05:48:21;;;;;;;12.93;5.70;;;;;;;8.04;65.72;99201.63;4952210;28;20051;-68
2022/04/21 05:50:49;;;;;;;12.40;6.50;;;;;;;8.17;65.21;99201.88;4951993;28;20039;-66
2022/04/21 05:53:26;;;;;;;9.43;4.80;;;;;;;8.35;65.01;99202.75;4951456;28;20035;-67
2022/04/21 05:55:53;;;;;;;12.25;5.72;;;;;;;8.57;64.08;99205.19;4951968;28;20031;-68
2022/04/21 05:58:20;;;;;;;11.25;5.55;;;;;;;8.71;64.40;99194.84;4952107;28;20038;-68
2022/04/21 06:00:45;;;;;;;9.68;6.22;;;;;;;8.94;63.32;99196.28;4948912;28;20070;-68
2022/04/21 06:03:11;;;;;;;11.57;4.97;;;;;;;9.15;62.57;99194.28;4948005;28;20063;-69
2022/04/21 06:05:37;;;;;;;11.77;5.03;;;;;;;9.33;62.01;99194.25;4950261;28;20103;-68
2022/04/21 06:08:03;;;;;;;11.05;4.60;;;;;;;9.46;61.74;99196.13;4951371;28;20047;-69
2022/04/21 06:10:28;;;;;;;19.25;6.07;;;;;;;9.67;61.72;99188.00;4950632;28;20102;-67
2022/04/21 06:12:54;;;;;;;10.98;4.55;;;;;;;9.93;60.84;99191.81;4951440;28;20067;-68
2022/04/21 06:15:19;;;;;;;8.15;4.53;;;;;;;10.21;60.08;99187.63;4951578;28;20392;-68
2022/04/21 06:17:45;;;;;;;17.20;6.10;;;;;;;10.56;57.83;99190.03;4951302;28;20051;-68
2022/04/21 06:20:11;;;;;;;8.95;4.45;;;;;;;10.83;56.39;99184.91;4949762;28;20488;-68
2022/04/21 06:22:36;;;;;;;7.90;5.00;;;;;;;11.14;55.05;99184.75;4950861;28;20467;-68
2022/04/21 06:25:02;;;;;;;9.70;4.93;;;;;;;11.38;54.23;99184.19;4951951;28;20130;-67
2022/04/21 06:27:27;;;;;;;14.63;7.93;;;;;;;11.48;52.92;99187.09;4951923;28;20043;-66
2022/04/21 06:29:53;;;;;;;10.18;5.88;;;;;;;11.80;53.08;99188.53;4953456;28;20043;-68
2022/04/21 06:32:18;;;;;;;9.23;4.53;;;;;;;12.32;50.84;99186.13;4951936;28;20043;-67
2022/04/21 06:34:44;;;;;;;8.63;4.80;;;;;;;12.67;50.46;99175.84;4953530;28;20039;-68
2022/04/21 06:37:09;;;;;;;10.38;4.50;;;;;;;12.98;48.66;99190.47;4952722;28;20050;-67
2022/04/21 06:39:35;;;;;;;9.77;4.50;;;;;;;13.17;48.38;99186.53;4951777;28;20043;-69
2022/04/21 06:42:00;;;;;;;5.80;4.13;;;;;;;13.37;46.38;99186.06;4950877;28;20034;-70
2022/04/21 06:49:53;;;;;;;5.82;3.70;;;;;;;13.84;45.63;99179.16;4951129;28;20050;-68
2022/04/21 06:52:19;;;;;;;7.18;4.10;;;;;;;13.86;46.01;99177.25;4950689;28;20716;-69
2022/04/21 06:54:44;;;;;;;11.10;4.78;;;;;;;13.87;45.52;99180.75;4951315;28;20031;-69
2022/04/21 06:57:10;;;;;;;8.52;4.35;;;;;;;13.86;45.21;99179.06;4951761;28;20034;-69
2022/04/21 06:59:35;;;;;;;5.55;4.10;;;;;;;14.03;44.92;99177.81;4951410;28;20063;-69
2022/04/21 07:02:00;;;;;;;14.57;5.45;;;;;;;13.98;45.38;99178.16;4950765;28;20086;-69
2022/04/21 07:04:27;;;;;;;12.75;4.60;;;;;;;14.10;45.15;99179.03;4949916;28;20050;-68
2022/04/21 07:06:53;;;;;;;9.05;3.80;;;;;;;14.59;44.04;99178.06;4951603;28;20483;-68
2022/04/21 07:09:18;;;;;;;6.10;4.38;;;;;;;14.86;43.24;99177.78;4951226;28;20043;-68
2022/04/21 07:11:44;;;;;;;10.80;4.30;;;;;;;15.28;42.27;99187.84;4952174;28;20063;-68
2022/04/21 07:14:10;;;;;;;5.65;4.45;;;;;;;15.28;42.01;99182.53;4952765;28;20110;-68
2022/04/21 07:16:35;;;;;;;6.25;4.15;;;;;;;15.66;41.61;99188.31;4951708;28;20035;-68
2022/04/21 07:19:01;;;;;;;13.40;4.40;;;;;;;16.23;40.58;99191.72;4952976;28;20039;-69
2022/04/21 07:21:26;;;;;;;6.78;4.40;;;;;;;16.33;39.93;99186.50;4952306;28;20046;-68
2022/04/21 07:23:51;;;;;;;7.18;3.95;;;;;;;16.56;39.27;99183.75;4953079;28;20031;-68
2022/04/21 07:26:17;;;;;;;5.75;4.03;;;;;;;16.82;38.48;99187.75;4950920;28;20046;-70
2022/04/21 07:28:44;;;;;;;8.02;3.83;;;;;;;17.08;38.01;99184.66;4951911;28;20125;-69
2022/04/21 07:31:10;;;;;;;10.52;4.40;;;;;;;17.58;37.61;99184.78;4950985;28;20035;-69
2022/04/21 07:33:36;;;;;;;6.85;4.30;;;;;;;17.41;37.37;99180.91;4947302;28;20039;-67
2022/04/21 07:36:01;;;;;;;8.75;4.60;;;;;;;17.47;37.14;99177.69;4969382;28;20053;-68
2022/04/21 07:38:26;;;;;;;8.30;4.15;;;;;;;17.28;37.73;99173.16;4954755;28;20039;-68
2022/04/21 07:40:53;;;;;;;7.28;5.03;;;;;;;17.40;37.29;99184.56;4954020;28;20432;-66
2022/04/21 07:43:20;;;;;;;10.32;5.20;;;;;;;17.32;37.54;99177.22;4954105;28;20039;-67
2022/04/21 07:45:45;;;;;;;7.90;4.93;;;;;;;17.37;37.31;99177.66;4954808;28;20253;-68
2022/04/21 07:48:10;;;;;;;7.45;3.90;;;;;;;17.58;37.26;99169.63;4954709;28;20118;-68
2022/04/21 07:50:36;;;;;;;8.82;4.70;;;;;;;17.70;37.01;99167.69;4953990;28;20664;-67
2022/04/21 07:53:13;;;;;;;8.30;4.38;;;;;;;17.86;36.05;99171.69;4945251;28;20035;-68
2022/04/21 07:59:06;;;;;;;6.47;3.78;;;;;;;18.08;35.31;99171.44;4925639;28;20120;-68
2022/04/21 08:01:31;;;;;;;6.95;3.78;;;;;;;18.56;34.98;99175.13;4949972;28;20039;-67
2022/04/21 08:04:02;;;;;;;11.07;4.45;;;;;;;18.22;35.08;99170.19;4954678;28;20046;-68
2022/04/21 08:06:28;;;;;;;6.43;4.38;;;;;;;17.93;35.73;99170.16;4954048;28;20038;-67
2022/04/21 08:08:55;;;;;;;7.10;4.47;;;;;;;18.05;35.41;99166.38;4953838;28;20106;-68
2022/04/21 08:11:21;;;;;;;6.07;4.25;;;;;;;18.47;34.86;99165.28;4953349;28;20042;-68
2022/04/21 08:13:47;;;;;;;7.80;4.72;;;;;;;18.46;34.92;99169.78;4954172;28;20106;-68
2022/04/21 08:16:12;;;;;;;4.88;4.28;;;;;;;18.47;34.74;99170.63;4953967;28;20492;-68
2022/04/21 08:18:37;;;;;;;5.40;4.22;;;;;;;18.57;34.62;99171.47;4953939;28;20035;-68
2022/04/21 08:21:03;;;;;;;6.55;4.20;;;;;;;18.84;34.59;99178.75;4951467;28;20061;-70
2022/04/21 08:23:28;;;;;;;13.88;4.18;;;;;;;18.93;33.92;99174.41;4953546;28;20028;-68
2022/04/21 08:34:05;;;;;;;6.70;4.20;;;;;;;18.87;33.82;99165.13;4953282;28;20066;-69
2022/04/21 08:36:31;;;;;;;9.70;4.57;;;;;;;18.63;34.43;99177.09;4953553;28;20031;-69
2022/04/21 08:38:56;;;;;;;7.40;4.72;;;;;;;18.86;33.67;99166.94;4953520;28;20452;-70
2022/04/21 08:41:26;;;;;;;11.68;4.75;;;;;;;19.13;33.72;99167.19;4952716;28;20039;-70
2022/04/21 08:43:54;;;;;;;8.15;3.45;;;;;;;19.51;33.08;99177.69;4952525;28;20035;-69
2022/04/21 08:46:24;;;;;;;7.43;3.72;;;;;;;20.16;31.94;99164.28;4953198;28;20163;-69
2022/04/21 08:48:51;;;;;;;10.20;5.03;;;;;;;20.06;32.51;99166.19;4953012;28;20047;-69
2022/04/21 08:51:19;;;;;;;7.65;4.30;;;;;;;19.88;32.37;99165.31;4952113;28;20182;-69
2022/04/21 08:53:44;;;;;;;9.50;4.80;;;;;;;20.20;32.09;99158.59;4952878;28;20050;-69
2022/04/21 08:56:10;;;;;;;7.45;4.05;;;;;;;20.29;32.11;99166.56;4953374;28;20027;-70
2022/04/21 08:58:36;;;;;;;7.00;4.30;;;;;;;20.27;31.51;99163.19;4943576;28;20035;-68
2022/04/21 09:01:01;;;;;;;9.40;5.10;;;;;;;19.89;32.07;99167.00;4951984;28;20031;-70
2022/04/21 09:03:26;;;;;;;6.68;5.03;;;;;;;19.71;32.18;99166.94;4952686;28;20445;-68
2022/04/21 09:05:52;;;;;;;6.93;5.57;;;;;;;19.29;32.61;99164.72;4952475;28;20035;-69
2022/04/21 09:08:26;;;;;;;10.25;5.45;;;;;;;18.95;33.54;99164.41;4951626;28;20035;-68
2022/04/21 09:11:03;;;;;;;10.88;4.80;;;;;;;18.74;34.06;99157.38;4950761;28;20094;-70
2022/04/21 09:13:37;;;;;;;9.32;5.20;;;;;;;18.76;33.77;99157.28;4952233;28;20384;-69
2022/04/21 09:16:05;;;;;;;11.50;5.13;;;;;;;18.95;33.80;99167.06;4952355;28;20435;-68
2022/04/21 09:18:44;;;;;;;9.57;4.53;;;;;;;19.13;32.31;99160.00;4951863;28;20039;-69
2022/04/21 09:21:15;;;;;;;6.43;4.90;;;;;;;19.22;31.76;99153.78;4951706;28;20035;-68
2022/04/21 09:23:42;;;;;;;6.85;4.60;;;;;;;19.45;31.58;99148.91;4967229;28;20507;-68
2022/04/21 09:26:10;;;;;;;6.50;4.63;;;;;;;19.76;31.24;99145.94;4952729;28;20035;-68
2022/04/21 09:28:36;;;;;;;8.15;4.95;;;;;;;20.53;30.97;99136.50;4953562;28;20364;-67
2022/04/21 09:31:02;;;;;;;9.27;5.30;;;;;;;21.23;29.71;99125.75;4951667;28;20046;-68
2022/04/21 09:33:35;;;;;;;7.50;4.60;;;;;;;21.67;28.10;99126.63;4952045;28;20523;-66
2022/04/21 09:36:07;;;;;;;10.38;4.95;;;;;;;22.01;29.38;99122.00;4952414;28;20540;-68
2022/04/21 09:38:35;;;;;;;11.77;5.10;;;;;;;22.42;28.90;99126.59;4952928;28;20035;-68
2022/04/21 09:41:12;;;;;;;7.25;5.28;;;;;;;23.09;27.18;99123.72;4951653;28;20512;-68
2022/04/21 09:43:38;;;;;;;11.75;5.05;;;;;;;23.37;26.14;99124.13;4952081;28;20039;-68
2022/04/21 09:46:19;;;;;;;5.88;4.03;;;;;;;22.82;25.96;99133.81;4952062;28;20044;-68
2022/04/21 09:48:46;;;;;;;12.45;4.10;;;;;;;23.04;25.48;99128.78;4952103;28;20047;-68
2022/04/21 09:51:27;;;;;;;14.45;4.97;;;;;;;22.96;25.15;99124.19;4951697;28;20027;-70
2022/04/21 09:54:02;;;;;;;8.70;4.38;;;;;;;23.03;25.03;99124.38;4952116;28;20043;-69
2022/04/21 09:56:33;;;;;;;19.30;4.95;;;;;;;23.26;25.26;99124.47;4951916;28;20035;-69
2022/04/21 09:59:03;;;;;;;9.05;5.20;;;;;;;22.99;25.78;99123.03;4952183;28;20038;-69
2022/04/21 10:01:29;;;;;;;10.43;4.18;;;;;;;23.45;25.62;99115.16;4966008;28;20039;-70
2022/04/21 10:03:58;;;;;;;7.43;4.07;;;;;;;22.55;26.44;99110.00;4951128;28;20031;-69
2022/04/21 10:06:23;;;;;;;11.75;4.45;;;;;;;22.65;26.58;99119.56;4950180;28;20107;-67
2022/04/21 10:08:50;;;;;;;9.32;4.20;;;;;;;23.24;25.40;99108.53;4951796;28;20524;-67
2022/04/21 10:11:23;;;;;;;7.50;4.13;;;;;;;23.39;25.35;99105.13;4950559;28;20042;-68
2022/04/21 10:13:52;;;;;;;6.03;3.97;;;;;;;23.48;25.15;99104.91;4952897;28;20460;-68
2022/04/21 10:16:17;;;;;;;7.63;4.22;;;;;;;23.64;24.89;99106.66;4952260;28;20039;-68
2022/04/21 10:18:46;;;;;;;6.85;3.05;;;;;;;23.48;22.91;99110.28;4951925;28;20035;-68
2022/04/21 10:21:16;;;;;;;8.18;3.25;;;;;;;23.74;22.81;99098.41;4951230;28;20032;-67
2022/04/21 10:23:43;;;;;;;9.52;3.83;;;;;;;23.77;22.57;99098.03;4936076;28;20132;-71
2022/04/21 10:26:08;;;;;;;14.07;5.30;;;;;;;22.73;24.28;99099.88;4951581;28;20072;-69
2022/04/21 10:28:41;;;;;;;10.15;4.25;;;;;;;22.87;24.30;99091.13;4951724;28;20114;-70
2022/04/21 10:31:25;;;;;;;11.80;3.72;;;;;;;23.03;24.40;99090.25;4951483;28;20063;-69
2022/04/21 10:33:57;;;;;;;10.98;4.53;;;;;;;22.77;24.67;99085.13;4950870;28;20046;-69
2022/04/21 10:36:46;;;;;;;8.90;4.25;;;;;;;22.19;25.80;99083.44;4951800;28;20039;-70
2022/04/21 10:39:25;;;;;;;7.97;4.55;;;;;;;22.00;26.03;99074.72;4951645;28;20035;-70
2022/04/21 10:42:07;;;;;;;5.88;3.78;;;;;;;21.81;26.60;99078.53;4950924;28;20035;-68
2022/04/21 10:44:41;;;;;;;9.75;3.33;;;;;;;21.27;26.00;99069.13;4951063;28;20035;-70
2022/04/21 10:47:26;;;;;;;6.20;3.83;;;;;;;20.52;25.88;99075.03;4951902;28;20039;-69
2022/04/21 10:49:55;;;;;;;7.72;3.42;;;;;;;20.38;26.76;99069.28;4952797;28;20127;-70
2022/04/21 10:57:48;;;;;;;9.48;4.28;;;;;;;19.23;28.35;99074.44;4953978;28;20080;-68
2022/04/21 11:00:29;;;;;;;7.00;3.53;;;;;;;19.04;27.38;99064.69;4952808;28;20039;-70
2022/04/21 11:03:10;;;;;;;7.65;3.33;;;;;;;18.47;29.16;99070.03;4950478;28;20113;-69
2022/04/21 11:05:38;;;;;;;15.15;3.88;;;;;;;18.20;30.03;99063.59;4952417;28;20073;-69
2022/04/21 11:08:11;;;;;;;12.90;4.35;;;;;;;18.17;30.10;99061.22;4955312;28;20043;-69
2022/04/21 11:10:36;;;;;;;13.35;4.15;;;;;;;18.23;30.10;99055.31;4955121;28;20051;-69
2022/04/21 11:13:01;;;;;;;9.18;4.28;;;;;;;17.93;30.90;99058.97;4954862;28;20047;-69
2022/04/21 11:15:33;;;;;;;7.82;3.90;;;;;;;18.00;31.31;99064.59;4954201;28;20393;-70
2022/04/21 11:18:04;;;;;;;9.55;3.78;;;;;;;18.16;30.81;99051.56;4954730;28;20040;-69
2022/04/21 11:20:30;;;;;;;10.90;4.40;;;;;;;17.78;31.68;99047.03;4957283;28;20035;-68
2022/04/21 11:22:56;;;;;;;6.93;3.50;;;;;;;17.98;31.47;99048.72;4956357;28;20035;-68
2022/04/21 11:25:21;;;;;;;7.50;4.55;;;;;;;18.15;30.84;99035.69;4956292;28;20055;-68
2022/04/21 11:27:48;;;;;;;6.95;3.92;;;;;;;18.15;29.89;99030.34;4955055;28;20047;-68
2022/04/21 11:30:15;;;;;;;8.90;4.88;;;;;;;18.32;30.45;99032.28;4955099;28;20035;-68
2022/04/21 11:32:51;;;;;;;6.45;4.38;;;;;;;18.13;30.63;99025.13;4953142;28;20043;-67
2022/04/21 11:35:18;;;;;;;8.77;5.47;;;;;;;17.88;32.00;99021.22;4954665;28;20039;-68
2022/04/21 11:38:01;;;;;;;8.73;4.68;;;;;;;17.98;31.94;99022.06;4954643;28;20054;-68
2022/04/21 11:40:31;;;;;;;13.75;4.60;;;;;;;18.20;32.04;99023.59;4954763;28;20047;-69
2022/04/21 11:42:58;;;;;;;11.80;4.82;;;;;;;18.30;31.37;99017.41;4954033;28;20157;-69
2022/04/21 11:45:29;;;;;;;16.02;5.20;;;;;;;18.42;31.04;99013.56;4954347;28;20067;-69
2022/04/21 11:47:55;;;;;;;12.52;4.32;;;;;;;18.35;30.64;99012.47;4954928;28;20042;-68
2022/04/21 11:50:23;;;;;;;8.52;4.15;;;;;;;18.33;30.14;99003.75;4953454;28;20114;-68
2022/04/21 11:52:52;;;;;;;5.93;3.97;;;;;;;17.85;30.64;99010.84;4953587;28;20110;-69
2022/04/21 11:55:19;;;;;;;8.35;3.85;;;;;;;17.76;30.86;99009.81;4952645;28;20031;-68
2022/04/21 11:57:45;;;;;;;8.23;4.45;;;;;;;17.71;31.75;99004.06;4954059;28;20031;-69
2022/04/21 12:00:12;;;;;;;7.30;3.58;;;;;;;17.88;31.69;99005.22;4953846;28;20468;-68
2022/04/21 12:08:07;;;;;;;10.38;4.35;;;;;;;17.76;33.11;98999.16;4954159;28;20038;-68
2022/04/21 12:10:35;;;;;;;12.30;3.95;;;;;;;17.68;33.41;98991.03;4953525;28;20481;-68
2022/04/21 12:13:02;;;;;;;6.47;4.72;;;;;;;17.63;33.78;98990.63;4953479;28;20035;-69
2022/04/21 12:15:29;;;;;;;16.67;5.07;;;;;;;17.48;33.74;98987.53;4953721;28;20046;-68
2022/04/21 12:18:04;;;;;;;17.58;4.68;;;;;;;17.37;33.95;98988.47;4951589;28;20126;-69
2022/04/21 12:20:30;;;;;;;7.70;4.90;;;;;;;17.59;34.16;98979.38;4952265;28;20101;-69
2022/04/21 12:22:56;;;;;;;8.50;4.55;;;;;;;17.99;33.66;98974.88;4952635;28;20110;-69
2022/04/21 12:25:34;;;;;;;5.15;4.65;;;;;;;18.45;33.02;98970.56;4954059;28;20042;-69
2022/04/21 12:28:08;;;;;;;14.98;4.25;;;;;;;18.57;32.46;98973.91;4953890;28;20031;-69
2022/04/21 12:30:39;;;;;;;8.80;4.75;;;;;;;18.58;32.59;98970.25;4950839;28;20094;-69